sensor_id;sensor_type;location;lat;lon;timestamp;pressure;altitude;pressure_sealevel;temperature;humidity
2875;BME280;1445;52.600;13.328;2023-06-04T00:01:57;101508.25;;;13.25;76.70
2875;BME280;1445;52.600;13.328;2023-06-04T00:04:23;101506.81;;;13.09;78.21
2875;BME280;1445;52.600;13.328;2023-06-04T00:06:48;101503.69;;;12.97;82.50
2875;BME280;1445;52.600;13.328;2023-06-04T00:09:14;101504.72;;;13.01;81.66
2875;BME280;1445;52.600;13.328;2023-06-04T00:11:40;101500.38;;;12.95;84.61
2875;BME280;1445;52.600;13.328;2023-06-04T00:14:06;101497.56;;;13.00;84.25
2875;BME280;1445;52.600;13.328;2023-06-04T00:16:31;101500.38;;;12.95;84.10
2875;BME280;1445;52.600;13.328;2023-06-04T00:18:57;101503.69;;;12.78;84.34
2875;BME280;1445;52.600;13.328;2023-06-04T00:21:22;101509.03;;;12.69;87.12
2875;BME280;1445;52.600;13.328;2023-06-04T00:23:48;101507.41;;;12.68;88.78
2875;BME280;1445;52.600;13.328;2023-06-04T00:26:13;101499.63;;;12.70;90.53
2875;BME280;1445;52.600;13.328;2023-06-04T00:28:38;101499.41;;;12.85;89.22
2875;BME280;1445;52.600;13.328;2023-06-04T00:31:05;101489.53;;;12.79;91.65
2875;BME280;1445;52.600;13.328;2023-06-04T00:33:31;101494.69;;;12.67;96.31
2875;BME280;1445;52.600;13.328;2023-06-04T00:35:57;101493.13;;;12.61;97.61
2875;BME280;1445;52.600;13.328;2023-06-04T00:38:22;101487.19;;;12.25;100.00
2875;BME280;1445;52.600;13.328;2023-06-04T00:40:48;101485.00;;;12.46;100.00
2875;BME280;1445;52.600;13.328;2023-06-04T00:43:13;101494.84;;;12.57;100.00
2875;BME280;1445;52.600;13.328;2023-06-04T00:45:39;101495.69;;;12.52;100.00
2875;BME280;1445;52.600;13.328;2023-06-04T00:48:05;101490.94;;;12.58;100.00
2875;BME280;1445;52.600;13.328;2023-06-04T00:50:31;101489.53;;;12.60;100.00
2875;BME280;1445;52.600;13.328;2023-06-04T00:52:58;101483.91;;;12.23;100.00
2875;BME280;1445;52.600;13.328;2023-06-04T00:55:24;101492.56;;;12.16;100.00
2875;BME280;1445;52.600;13.328;2023-06-04T00:57:50;101491.50;;;12.12;100.00
2875;BME280;1445;52.600;13.328;2023-06-04T01:00:16;101494.78;;;12.14;100.00
2875;BME280;1445;52.600;13.328;2023-06-04T01:02:43;101489.84;;;12.11;100.00
2875;BME280;1445;52.600;13.328;2023-06-04T01:05:16;101488.16;;;12.15;100.00
2875;BME280;1445;52.600;13.328;2023-06-04T01:07:45;101486.09;;;12.02;100.00
2875;BME280;1445;52.600;13.328;2023-06-04T01:10:13;101486.81;;;11.83;100.00
2875;BME280;1445;52.600;13.328;2023-06-04T01:12:40;101488.56;;;11.74;100.00
2875;BME280;1445;52.600;13.328;2023-06-04T01:15:06;101486.78;;;11.88;100.00
2875;BME280;1445;52.600;13.328;2023-06-04T01:17:37;101485.72;;;11.84;100.00
2875;BME280;1445;52.600;13.328;2023-06-04T01:25:38;101482.53;;;11.67;100.00
2875;BME280;1445;52.600;13.328;2023-06-04T01:28:06;101479.84;;;11.62;100.00
2875;BME280;1445;52.600;13.328;2023-06-04T01:30:35;101477.91;;;11.62;100.00
2875;BME280;1445;52.600;13.328;2023-06-04T01:33:09;101475.91;;;11.68;100.00
2875;BME280;1445;52.600;13.328;2023-06-04T01:35:38;101472.31;;;11.67;100.00
2875;BME280;1445;52.600;13.328;2023-06-04T01:38:04;101482.22;;;11.39;100.00
2875;BME280;1445;52.600;13.328;2023-06-04T01:40:30;101481.28;;;11.54;100.00
2875;BME280;1445;52.600;13.328;2023-06-04T01:42:56;101479.47;;;11.68;100.00
2875;BME280;1445;52.600;13.328;2023-06-04T01:45:22;101476.72;;;11.68;100.00
2875;BME280;1445;52.600;13.328;2023-06-04T01:47:48;101480.31;;;11.69;100.00
2875;BME280;1445;52.600;13.328;2023-06-04T01:50:13;101480.13;;;11.60;100.00
2875;BME280;1445;52.600;13.328;2023-06-04T01:52:39;101480.66;;;11.62;100.00
2875;BME280;1445;52.600;13.328;2023-06-04T01:55:07;101476.06;;;11.47;100.00
2875;BME280;1445;52.600;13.328;2023-06-04T01:57:36;101472.56;;;11.42;100.00
2875;BME280;1445;52.600;13.328;2023-06-04T02:00:02;101479.38;;;11.50;100.00
2875;BME280;1445;52.600;13.328;2023-06-04T02:02:29;101469.72;;;11.52;100.00
2875;BME280;1445;52.600;13.328;2023-06-04T02:04:55;101462.56;;;11.46;100.00
2875;BME280;1445;52.600;13.328;2023-06-04T02:07:20;101467.78;;;11.47;100.00
2875;BME280;1445;52.600;13.328;2023-06-04T02:09:46;101466.72;;;11.43;100.00
2875;BME280;1445;52.600;13.328;2023-06-04T02:12:12;101469.34;;;11.30;100.00
2875;BME280;1445;52.600;13.328;2023-06-04T02:14:38;101468.09;;;11.12;100.00
2875;BME280;1445;52.600;13.328;2023-06-04T02:17:04;101465.00;;;11.18;100.00
2875;BME280;1445;52.600;13.328;2023-06-04T02:19:30;101457.56;;;11.19;100.00
2875;BME280;1445;52.600;13.328;2023-06-04T02:21:58;101459.47;;;11.23;100.00
2875;BME280;1445;52.600;13.328;2023-06-04T02:24:24;101461.56;;;11.03;100.00
2875;BME280;1445;52.600;13.328;2023-06-04T02:26:49;101457.31;;;10.76;100.00
2875;BME280;1445;52.600;13.328;2023-06-04T02:29:15;101457.19;;;10.91;100.00
2875;BME280;1445;52.600;13.328;2023-06-04T02:31:40;101458.06;;;10.87;100.00
2875;BME280;1445;52.600;13.328;2023-06-04T02:34:05;101455.00;;;10.93;100.00
2875;BME280;1445;52.600;13.328;2023-06-04T02:36:31;101471.09;;;10.81;100.00
2875;BME280;1445;52.600;13.328;2023-06-04T02:38:56;101462.72;;;10.91;100.00
2875;BME280;1445;52.600;13.328;2023-06-04T02:41:23;101463.59;;;10.87;100.00
2875;BME280;1445;52.600;13.328;2023-06-04T02:43:48;101468.03;;;10.83;100.00
2875;BME280;1445;52.600;13.328;2023-06-04T02:46:14;101472.50;;;10.73;100.00
2875;BME280;1445;52.600;13.328;2023-06-04T02:48:39;101475.50;;;10.77;100.00
2875;BME280;1445;52.600;13.328;2023-06-04T02:51:05;101466.19;;;10.68;100.00
2875;BME280;1445;52.600;13.328;2023-06-04T02:53:30;101481.63;;;10.69;100.00
2875;BME280;1445;52.600;13.328;2023-06-04T02:55:56;101473.13;;;10.60;100.00
2875;BME280;1445;52.600;13.328;2023-06-04T02:58:21;101478.06;;;10.63;100.00
2875;BME280;1445;52.600;13.328;2023-06-04T03:00:51;101478.88;;;10.69;100.00
2875;BME280;1445;52.600;13.328;2023-06-04T03:03:17;101474.47;;;10.63;100.00
2875;BME280;1445;52.600;13.328;2023-06-04T03:05:42;101468.75;;;10.54;100.00
2875;BME280;1445;52.600;13.328;2023-06-04T03:08:08;101471.81;;;10.47;100.00
2875;BME280;1445;52.600;13.328;2023-06-04T03:10:33;101474.88;;;10.46;100.00
2875;BME280;1445;52.600;13.328;2023-06-04T03:12:59;101473.97;;;10.56;100.00
2875;BME280;1445;52.600;13.328;2023-06-04T03:15:24;101476.72;;;10.61;100.00
2875;BME280;1445;52.600;13.328;2023-06-04T03:17:50;101475.31;;;10.63;100.00
2875;BME280;1445;52.600;13.328;2023-06-04T03:20:17;101475.78;;;10.75;100.00
2875;BME280;1445;52.600;13.328;2023-06-04T03:22:42;101467.53;;;10.70;100.00
2875;BME280;1445;52.600;13.328;2023-06-04T03:25:08;101480.00;;;10.63;100.00
2875;BME280;1445;52.600;13.328;2023-06-04T03:27:33;101478.69;;;10.50;100.00
2875;BME280;1445;52.600;13.328;2023-06-04T03:29:59;101478.03;;;10.68;100.00
2875;BME280;1445;52.600;13.328;2023-06-04T03:32:25;101476.16;;;10.59;100.00
2875;BME280;1445;52.600;13.328;2023-06-04T03:34:51;101478.31;;;10.72;100.00
2875;BME280;1445;52.600;13.328;2023-06-04T03:37:17;101482.13;;;10.76;100.00
2875;BME280;1445;52.600;13.328;2023-06-04T03:39:42;101485.75;;;10.66;100.00
2875;BME280;1445;52.600;13.328;2023-06-04T03:42:08;101486.28;;;10.73;100.00
2875;BME280;1445;52.600;13.328;2023-06-04T03:44:33;101476.47;;;10.57;100.00
2875;BME280;1445;52.600;13.328;2023-06-04T03:46:59;101477.47;;;10.71;100.00
2875;BME280;1445;52.600;13.328;2023-06-04T03:49:25;101475.50;;;10.77;100.00
2875;BME280;1445;52.600;13.328;2023-06-04T03:51:50;101477.94;;;10.89;100.00
2875;BME280;1445;52.600;13.328;2023-06-04T03:54:16;101476.00;;;10.84;100.00
2875;BME280;1445;52.600;13.328;2023-06-04T03:56:45;101483.19;;;10.85;100.00
2875;BME280;1445;52.600;13.328;2023-06-04T03:59:11;101480.75;;;10.79;100.00
2875;BME280;1445;52.600;13.328;2023-06-04T04:01:37;101481.59;;;10.74;100.00
2875;BME280;1445;52.600;13.328;2023-06-04T04:04:03;101481.00;;;10.77;100.00
2875;BME280;1445;52.600;13.328;2023-06-04T04:06:29;101485.50;;;10.63;100.00
2875;BME280;1445;52.600;13.328;2023-06-04T04:08:54;101482.69;;;10.73;100.00
2875;BME280;1445;52.600;13.328;2023-06-04T04:11:20;101491.53;;;10.70;100.00
2875;BME280;1445;52.600;13.328;2023-06-04T04:13:47;101494.59;;;10.68;100.00
2875;BME280;1445;52.600;13.328;2023-06-04T04:16:12;101493.47;;;10.69;100.00
2875;BME280;1445;52.600;13.328;2023-06-04T04:18:38;101493.72;;;10.78;100.00
2875;BME280;1445;52.600;13.328;2023-06-04T04:21:04;101496.63;;;10.42;100.00
2875;BME280;1445;52.600;13.328;2023-06-04T04:23:31;101497.06;;;10.70;100.00
2875;BME280;1445;52.600;13.328;2023-06-04T04:25:58;101487.88;;;10.85;100.00
2875;BME280;1445;52.600;13.328;2023-06-04T04:28:27;101496.13;;;10.90;100.00
2875;BME280;1445;52.600;13.328;2023-06-04T04:30:54;101492.44;;;11.05;100.00
2875;BME280;1445;52.600;13.328;2023-06-04T04:33:22;101495.50;;;11.03;100.00
2875;BME280;1445;52.600;13.328;2023-06-04T04:35:49;101497.88;;;11.15;100.00
2875;BME280;1445;52.600;13.328;2023-06-04T04:38:15;101496.50;;;11.17;100.00
2875;BME280;1445;52.600;13.328;2023-06-04T04:40:42;101500.88;;;11.23;100.00
2875;BME280;1445;52.600;13.328;2023-06-04T04:43:07;101497.66;;;11.45;100.00
2875;BME280;1445;52.600;13.328;2023-06-04T04:45:33;101489.94;;;11.42;100.00
2875;BME280;1445;52.600;13.328;2023-06-04T04:47:58;101495.31;;;11.58;100.00
2875;BME280;1445;52.600;13.328;2023-06-04T04:50:24;101496.41;;;11.62;100.00
2875;BME280;1445;52.600;13.328;2023-06-04T04:52:49;101496.94;;;11.64;100.00
2875;BME280;1445;52.600;13.328;2023-06-04T04:55:14;101495.13;;;11.78;100.00
2875;BME280;1445;52.600;13.328;2023-06-04T04:57:40;101499.22;;;11.86;100.00
2875;BME280;1445;52.600;13.328;2023-06-04T05:00:06;101507.66;;;12.00;100.00
2875;BME280;1445;52.600;13.328;2023-06-04T05:02:35;101498.66;;;12.13;100.00
2875;BME280;1445;52.600;13.328;2023-06-04T05:05:01;101512.38;;;12.23;100.00
2875;BME280;1445;52.600;13.328;2023-06-04T05:07:26;101501.47;;;12.32;100.00
2875;BME280;1445;52.600;13.328;2023-06-04T05:09:51;101505.22;;;12.46;100.00
2875;BME280;1445;52.600;13.328;2023-06-04T05:12:17;101506.50;;;12.54;100.00
2875;BME280;1445;52.600;13.328;2023-06-04T05:14:45;101500.81;;;12.64;100.00
2875;BME280;1445;52.600;13.328;2023-06-04T05:17:11;101492.91;;;12.76;100.00
2875;BME280;1445;52.600;13.328;2023-06-04T05:19:38;101497.69;;;12.89;100.00
2875;BME280;1445;52.600;13.328;2023-06-04T05:22:04;101505.91;;;12.95;100.00
2875;BME280;1445;52.600;13.328;2023-06-04T05:24:30;101501.91;;;13.06;100.00
2875;BME280;1445;52.600;13.328;2023-06-04T05:26:56;101506.38;;;13.21;100.00
2875;BME280;1445;52.600;13.328;2023-06-04T05:29:23;101499.88;;;13.30;100.00
2875;BME280;1445;52.600;13.328;2023-06-04T05:31:48;101497.34;;;13.34;100.00
2875;BME280;1445;52.600;13.328;2023-06-04T05:34:14;101507.44;;;13.57;100.00
2875;BME280;1445;52.600;13.328;2023-06-04T05:36:42;101501.09;;;13.57;100.00
2875;BME280;1445;52.600;13.328;2023-06-04T05:39:09;101505.84;;;13.70;100.00
2875;BME280;1445;52.600;13.328;2023-06-04T05:41:35;101510.81;;;13.87;100.00
2875;BME280;1445;52.600;13.328;2023-06-04T05:44:01;101503.22;;;13.93;100.00
2875;BME280;1445;52.600;13.328;2023-06-04T05:46:27;101509.28;;;13.95;100.00
2875;BME280;1445;52.600;13.328;2023-06-04T05:48:52;101511.97;;;14.14;100.00
2875;BME280;1445;52.600;13.328;2023-06-04T05:51:19;101512.19;;;14.31;100.00
2875;BME280;1445;52.600;13.328;2023-06-04T05:53:44;101508.72;;;14.39;100.00
2875;BME280;1445;52.600;13.328;2023-06-04T05:56:10;101508.47;;;14.49;100.00
2875;BME280;1445;52.600;13.328;2023-06-04T05:58:35;101512.00;;;14.55;100.00
2875;BME280;1445;52.600;13.328;2023-06-04T06:01:01;101513.44;;;14.66;100.00
2875;BME280;1445;52.600;13.328;2023-06-04T06:03:26;101510.00;;;14.83;100.00
2875;BME280;1445;52.600;13.328;2023-06-04T06:05:55;101516.16;;;14.94;100.00
2875;BME280;1445;52.600;13.328;2023-06-04T06:08:22;101515.94;;;15.04;100.00
2875;BME280;1445;52.600;13.328;2023-06-04T06:10:47;101515.75;;;15.23;100.00
2875;BME280;1445;52.600;13.328;2023-06-04T06:13:13;101519.28;;;15.37;100.00
2875;BME280;1445;52.600;13.328;2023-06-04T06:15:38;101509.41;;;15.45;100.00
2875;BME280;1445;52.600;13.328;2023-06-04T06:18:05;101510.47;;;15.58;95.83
2875;BME280;1445;52.600;13.328;2023-06-04T06:20:30;101513.00;;;15.68;95.09
2875;BME280;1445;52.600;13.328;2023-06-04T06:22:57;101514.25;;;15.84;89.54
2875;BME280;1445;52.600;13.328;2023-06-04T06:25:23;101514.63;;;15.91;87.44
2875;BME280;1445;52.600;13.328;2023-06-04T06:27:48;101510.41;;;15.94;85.98
2875;BME280;1445;52.600;13.328;2023-06-04T06:30:14;101516.31;;;16.01;86.18
2875;BME280;1445;52.600;13.328;2023-06-04T06:32:39;101521.97;;;16.18;82.87
2875;BME280;1445;52.600;13.328;2023-06-04T06:35:05;101518.28;;;16.40;66.08
2875;BME280;1445;52.600;13.328;2023-06-04T06:37:31;101518.97;;;16.55;61.89
2875;BME280;1445;52.600;13.328;2023-06-04T06:39:56;101524.88;;;16.62;58.40
2875;BME280;1445;52.600;13.328;2023-06-04T06:42:22;101518.84;;;16.68;57.07
2875;BME280;1445;52.600;13.328;2023-06-04T06:44:48;101525.09;;;16.74;57.63
2875;BME280;1445;52.600;13.328;2023-06-04T06:47:13;101527.03;;;16.74;58.20
2875;BME280;1445;52.600;13.328;2023-06-04T06:49:42;101531.38;;;16.97;52.30
2875;BME280;1445;52.600;13.328;2023-06-04T06:52:07;101527.94;;;17.00;50.28
2875;BME280;1445;52.600;13.328;2023-06-04T06:54:33;101525.66;;;17.11;48.45
2875;BME280;1445;52.600;13.328;2023-06-04T06:56:58;101523.53;;;17.16;49.83
2875;BME280;1445;52.600;13.328;2023-06-04T06:59:24;101534.03;;;17.28;50.88
2875;BME280;1445;52.600;13.328;2023-06-04T07:01:50;101525.81;;;17.23;49.42
2875;BME280;1445;52.600;13.328;2023-06-04T07:04:16;101525.81;;;17.32;48.39
2875;BME280;1445;52.600;13.328;2023-06-04T07:06:42;101521.72;;;17.47;49.51
2875;BME280;1445;52.600;13.328;2023-06-04T07:09:08;101522.50;;;17.64;49.37
2875;BME280;1445;52.600;13.328;2023-06-04T07:11:33;101526.09;;;17.74;47.78
2875;BME280;1445;52.600;13.328;2023-06-04T07:13:59;101531.41;;;17.49;44.33
2875;BME280;1445;52.600;13.328;2023-06-04T07:16:25;101527.47;;;17.41;43.67
2875;BME280;1445;52.600;13.328;2023-06-04T07:18:50;101532.88;;;17.38;41.69
2875;BME280;1445;52.600;13.328;2023-06-04T07:21:16;101533.69;;;17.47;41.66
2875;BME280;1445;52.600;13.328;2023-06-04T07:23:41;101531.22;;;17.46;41.94
2875;BME280;1445;52.600;13.328;2023-06-04T07:26:07;101536.63;;;17.59;41.23
2875;BME280;1445;52.600;13.328;2023-06-04T07:28:33;101527.28;;;17.55;40.97
2875;BME280;1445;52.600;13.328;2023-06-04T07:30:59;101533.19;;;17.62;40.24
2875;BME280;1445;52.600;13.328;2023-06-04T07:33:24;101534.00;;;17.63;39.56
2875;BME280;1445;52.600;13.328;2023-06-04T07:35:50;101532.53;;;17.57;40.08
2875;BME280;1445;52.600;13.328;2023-06-04T07:38:16;101531.06;;;17.59;39.36
2875;BME280;1445;52.600;13.328;2023-06-04T07:40:43;101526.91;;;17.83;41.02
2875;BME280;1445;52.600;13.328;2023-06-04T07:43:08;101537.06;;;17.96;39.73
2875;BME280;1445;52.600;13.328;2023-06-04T07:45:34;101531.63;;;18.08;40.19
2875;BME280;1445;52.600;13.328;2023-06-04T07:47:59;101529.91;;;18.25;40.75
2875;BME280;1445;52.600;13.328;2023-06-04T07:50:24;101533.28;;;18.39;39.49
2875;BME280;1445;52.600;13.328;2023-06-04T07:52:50;101535.34;;;18.59;39.67
2875;BME280;1445;52.600;13.328;2023-06-04T07:55:16;101522.75;;;18.83;40.39
2875;BME280;1445;52.600;13.328;2023-06-04T07:57:42;101517.97;;;19.04;38.28
2875;BME280;1445;52.600;13.328;2023-06-04T08:00:08;101523.94;;;19.24;38.74
2875;BME280;1445;52.600;13.328;2023-06-04T08:02:34;101529.28;;;19.50;39.74
2875;BME280;1445;52.600;13.328;2023-06-04T08:05:00;101529.41;;;19.53;38.96
2875;BME280;1445;52.600;13.328;2023-06-04T08:07:25;101529.41;;;19.53;37.26
2875;BME280;1445;52.600;13.328;2023-06-04T08:09:51;101529.69;;;19.40;35.64
2875;BME280;1445;52.600;13.328;2023-06-04T08:12:17;101533.66;;;19.39;35.79
2875;BME280;1445;52.600;13.328;2023-06-04T08:14:42;101538.97;;;19.52;36.51
2875;BME280;1445;52.600;13.328;2023-06-04T08:17:08;101528.03;;;19.81;37.29
2875;BME280;1445;52.600;13.328;2023-06-04T08:19:33;101526.78;;;20.02;36.89
2875;BME280;1445;52.600;13.328;2023-06-04T08:21:58;101526.31;;;20.00;34.61
2875;BME280;1445;52.600;13.328;2023-06-04T08:24:24;101535.94;;;19.78;32.96
2875;BME280;1445;52.600;13.328;2023-06-04T08:26:49;101534.19;;;19.74;31.27
2875;BME280;1445;52.600;13.328;2023-06-04T08:29:19;101535.78;;;19.63;32.71
2875;BME280;1445;52.600;13.328;2023-06-04T08:31:44;101534.31;;;19.57;32.81
2875;BME280;1445;52.600;13.328;2023-06-04T08:34:10;101533.53;;;19.89;32.90
2875;BME280;1445;52.600;13.328;2023-06-04T08:36:38;101528.97;;;19.97;33.56
2875;BME280;1445;52.600;13.328;2023-06-04T08:39:04;101525.31;;;20.30;34.74
2875;BME280;1445;52.600;13.328;2023-06-04T08:41:44;101527.22;;;20.50;35.38
2875;BME280;1445;52.600;13.328;2023-06-04T08:44:10;101524.97;;;20.80;34.64
2875;BME280;1445;52.600;13.328;2023-06-04T08:46:39;101529.19;;;20.86;32.97
2875;BME280;1445;52.600;13.328;2023-06-04T08:49:08;101526.47;;;21.42;32.48
2875;BME280;1445;52.600;13.328;2023-06-04T08:51:36;101533.06;;;21.62;32.49
2875;BME280;1445;52.600;13.328;2023-06-04T08:54:04;101526.06;;;22.00;32.52
2875;BME280;1445;52.600;13.328;2023-06-04T08:56:32;101532.63;;;22.20;31.59
2875;BME280;1445;52.600;13.328;2023-06-04T08:59:06;101529.13;;;22.11;30.77
2875;BME280;1445;52.600;13.328;2023-06-04T09:01:33;101537.16;;;22.25;31.39
2875;BME280;1445;52.600;13.328;2023-06-04T09:04:03;101534.13;;;22.02;30.01
2875;BME280;1445;52.600;13.328;2023-06-04T09:06:29;101536.03;;;22.13;30.94
2875;BME280;1445;52.600;13.328;2023-06-04T09:08:59;101532.84;;;21.83;29.86
2875;BME280;1445;52.600;13.328;2023-06-04T09:11:35;101531.19;;;22.26;29.81
2875;BME280;1445;52.600;13.328;2023-06-04T09:14:07;101530.75;;;22.40;29.52
2875;BME280;1445;52.600;13.328;2023-06-04T09:16:53;101534.59;;;21.60;29.20
2875;BME280;1445;52.600;13.328;2023-06-04T09:19:21;101532.72;;;21.24;30.22
2875;BME280;1445;52.600;13.328;2023-06-04T09:22:04;101527.56;;;21.38;30.22
2875;BME280;1445;52.600;13.328;2023-06-04T09:24:45;101520.94;;;21.18;29.56
2875;BME280;1445;52.600;13.328;2023-06-04T09:27:25;101529.47;;;21.78;29.72
2875;BME280;1445;52.600;13.328;2023-06-04T09:29:54;101529.28;;;22.30;30.24
2875;BME280;1445;52.600;13.328;2023-06-04T09:32:21;101529.34;;;22.66;28.77
2875;BME280;1445;52.600;13.328;2023-06-04T09:34:47;101535.22;;;22.76;28.43
2875;BME280;1445;52.600;13.328;2023-06-04T09:37:16;101536.44;;;23.30;27.74
2875;BME280;1445;52.600;13.328;2023-06-04T09:39:57;101527.19;;;23.10;27.51
2875;BME280;1445;52.600;13.328;2023-06-04T09:42:23;101528.97;;;22.67;27.99
2875;BME280;1445;52.600;13.328;2023-06-04T09:44:49;101534.53;;;22.32;28.24
2875;BME280;1445;52.600;13.328;2023-06-04T09:47:14;101529.44;;;22.22;28.08
2875;BME280;1445;52.600;13.328;2023-06-04T09:49:42;101521.38;;;22.04;28.44
2875;BME280;1445;52.600;13.328;2023-06-04T09:52:08;101535.13;;;22.57;28.26
2875;BME280;1445;52.600;13.328;2023-06-04T09:54:37;101531.63;;;23.50;27.97
2875;BME280;1445;52.600;13.328;2023-06-04T09:57:14;101528.94;;;24.42;27.66
2875;BME280;1445;52.600;13.328;2023-06-04T09:59:46;101517.94;;;25.13;26.31
2875;BME280;1445;52.600;13.328;2023-06-04T10:02:19;101519.13;;;25.42;26.46
2875;BME280;1445;52.600;13.328;2023-06-04T10:04:49;101507.97;;;25.90;25.61
2875;BME280;1445;52.600;13.328;2023-06-04T10:07:19;101507.09;;;26.27;25.55
2875;BME280;1445;52.600;13.328;2023-06-04T10:09:45;101514.72;;;26.71;23.35
2875;BME280;1445;52.600;13.328;2023-06-04T10:12:14;101509.59;;;26.91;24.15
2875;BME280;1445;52.600;13.328;2023-06-04T10:14:56;101507.44;;;27.39;23.59
2875;BME280;1445;52.600;13.328;2023-06-04T10:17:22;101511.91;;;27.47;22.56
2875;BME280;1445;52.600;13.328;2023-06-04T10:19:50;101516.66;;;27.22;22.92
2875;BME280;1445;52.600;13.328;2023-06-04T10:22:19;101522.47;;;27.72;22.93
2875;BME280;1445;52.600;13.328;2023-06-04T10:24:44;101503.94;;;27.96;22.73
2875;BME280;1445;52.600;13.328;2023-06-04T10:27:14;101505.56;;;27.93;22.24
2875;BME280;1445;52.600;13.328;2023-06-04T10:29:42;101510.31;;;27.57;22.79
2875;BME280;1445;52.600;13.328;2023-06-04T10:32:08;101503.94;;;28.06;22.77
2875;BME280;1445;52.600;13.328;2023-06-04T10:34:34;101501.28;;;27.19;22.98
2875;BME280;1445;52.600;13.328;2023-06-04T10:37:00;101508.88;;;27.08;21.99
2875;BME280;1445;52.600;13.328;2023-06-04T10:39:30;101501.38;;;27.48;21.67
2875;BME280;1445;52.600;13.328;2023-06-04T10:42:03;101503.72;;;27.21;21.98
2875;BME280;1445;52.600;13.328;2023-06-04T10:44:43;101497.97;;;27.10;22.34
2875;BME280;1445;52.600;13.328;2023-06-04T10:47:18;101503.84;;;26.76;22.50
2875;BME280;1445;52.600;13.328;2023-06-04T10:49:44;101506.63;;;27.42;22.32
2875;BME280;1445;52.600;13.328;2023-06-04T10:52:10;101499.88;;;28.83;21.62
2875;BME280;1445;52.600;13.328;2023-06-04T10:54:35;101496.84;;;29.36;19.91
2875;BME280;1445;52.600;13.328;2023-06-04T10:57:13;101488.97;;;30.28;20.53
2875;BME280;1445;52.600;13.328;2023-06-04T10:59:39;101492.09;;;31.17;19.79
2875;BME280;1445;52.600;13.328;2023-06-04T11:02:08;101482.81;;;31.12;18.98
2875;BME280;1445;52.600;13.328;2023-06-04T11:04:35;101485.09;;;31.25;19.17
2875;BME280;1445;52.600;13.328;2023-06-04T11:07:07;101494.06;;;31.84;18.21
2875;BME280;1445;52.600;13.328;2023-06-04T11:09:37;101493.22;;;31.88;17.55
2875;BME280;1445;52.600;13.328;2023-06-04T11:12:05;101489.53;;;32.38;18.35
2875;BME280;1445;52.600;13.328;2023-06-04T11:14:30;101485.41;;;33.06;16.79
2875;BME280;1445;52.600;13.328;2023-06-04T11:16:56;101478.66;;;33.16;16.99
2875;BME280;1445;52.600;13.328;2023-06-04T11:19:22;101479.91;;;33.15;18.22
2875;BME280;1445;52.600;13.328;2023-06-04T11:21:48;101467.81;;;33.27;18.06
2875;BME280;1445;52.600;13.328;2023-06-04T11:24:14;101473.81;;;33.53;17.51
2875;BME280;1445;52.600;13.328;2023-06-04T11:26:41;101474.66;;;34.35;17.67
2875;BME280;1445;52.600;13.328;2023-06-04T11:29:08;101470.53;;;34.81;16.60
2875;BME280;1445;52.600;13.328;2023-06-04T11:31:46;101469.94;;;34.74;16.51
2875;BME280;1445;52.600;13.328;2023-06-04T11:36:49;101473.34;;;34.07;16.41
2875;BME280;1445;52.600;13.328;2023-06-04T11:39:15;101469.47;;;33.97;16.38
2875;BME280;1445;52.600;13.328;2023-06-04T11:41:41;101476.50;;;32.60;16.78
2875;BME280;1445;52.600;13.328;2023-06-04T11:44:07;101479.41;;;30.90;17.60
2875;BME280;1445;52.600;13.328;2023-06-04T11:46:33;101471.03;;;31.10;17.90
2875;BME280;1445;52.600;13.328;2023-06-04T11:48:59;101477.31;;;32.14;17.28
2875;BME280;1445;52.600;13.328;2023-06-04T11:51:25;101475.09;;;31.44;16.79
2875;BME280;1445;52.600;13.328;2023-06-04T11:53:51;101473.00;;;31.75;17.76
2875;BME280;1445;52.600;13.328;2023-06-04T11:56:17;101459.06;;;33.54;17.49
2875;BME280;1445;52.600;13.328;2023-06-04T11:58:43;101463.69;;;34.01;17.02
2875;BME280;1445;52.600;13.328;2023-06-04T12:01:11;101457.56;;;33.82;16.82
2875;BME280;1445;52.600;13.328;2023-06-04T12:03:42;101465.59;;;34.82;16.36
2875;BME280;1445;52.600;13.328;2023-06-04T12:08:51;101460.28;;;34.97;15.95
2875;BME280;1445;52.600;13.328;2023-06-04T12:11:31;101452.31;;;35.04;15.96
2875;BME280;1445;52.600;13.328;2023-06-04T12:14:04;101449.75;;;35.61;15.01
2875;BME280;1445;52.600;13.328;2023-06-04T12:16:31;101457.09;;;36.48;14.46
2875;BME280;1445;52.600;13.328;2023-06-04T12:19:09;101448.03;;;35.51;14.83
2875;BME280;1445;52.600;13.328;2023-06-04T12:21:35;101457.34;;;35.13;15.51
2875;BME280;1445;52.600;13.328;2023-06-04T12:24:12;101450.28;;;36.20;14.31
2875;BME280;1445;52.600;13.328;2023-06-04T12:26:39;101446.91;;;36.69;13.12
2875;BME280;1445;52.600;13.328;2023-06-04T12:29:16;101453.84;;;35.98;13.46
2875;BME280;1445;52.600;13.328;2023-06-04T12:31:44;101451.06;;;33.98;14.66
2875;BME280;1445;52.600;13.328;2023-06-04T12:34:12;101455.69;;;33.59;15.18
2875;BME280;1445;52.600;13.328;2023-06-04T12:36:38;101458.50;;;31.93;16.48
2875;BME280;1445;52.600;13.328;2023-06-04T12:39:04;101448.69;;;32.41;16.71
2875;BME280;1445;52.600;13.328;2023-06-04T12:41:33;101444.91;;;33.47;17.12
2875;BME280;1445;52.600;13.328;2023-06-04T12:43:59;101439.41;;;34.54;15.61
2875;BME280;1445;52.600;13.328;2023-06-04T12:46:26;101438.88;;;35.56;14.99
2875;BME280;1445;52.600;13.328;2023-06-04T12:48:53;101435.28;;;35.39;15.73
2875;BME280;1445;52.600;13.328;2023-06-04T12:51:20;101445.34;;;36.07;15.18
2875;BME280;1445;52.600;13.328;2023-06-04T12:53:48;101437.53;;;36.99;13.93
2875;BME280;1445;52.600;13.328;2023-06-04T12:56:14;101437.63;;;36.65;14.36
2875;BME280;1445;52.600;13.328;2023-06-04T12:58:39;101436.88;;;37.17;13.99
2875;BME280;1445;52.600;13.328;2023-06-04T13:01:05;101441.44;;;37.37;14.45
2875;BME280;1445;52.600;13.328;2023-06-04T13:03:31;101438.75;;;37.42;13.85
2875;BME280;1445;52.600;13.328;2023-06-04T13:05:57;101429.63;;;37.75;13.24